sensor_id;sensor_type;location;lat;lon;timestamp;P1;durP1;ratioP1;P2;durP2;ratioP2
44434;SDS011;30138;20.964;105.830;2023-02-15T00:04:35;65.50;;;40.13;;
44434;SDS011;30138;20.964;105.830;2023-02-15T00:09:55;73.15;;;39.92;;
44434;SDS011;30138;20.964;105.830;2023-02-15T00:15:03;63.95;;;38.17;;
44434;SDS011;30138;20.964;105.830;2023-02-15T00:20:10;66.47;;;39.20;;
44434;SDS011;30138;20.964;105.830;2023-02-15T00:25:17;61.22;;;38.47;;
44434;SDS011;30138;20.964;105.830;2023-02-15T00:30:25;67.60;;;39.30;;
44434;SDS011;30138;20.964;105.830;2023-02-15T00:35:32;62.58;;;38.35;;
44434;SDS011;30138;20.964;105.830;2023-02-15T00:40:38;64.68;;;38.20;;
44434;SDS011;30138;20.964;105.830;2023-02-15T00:45:47;61.83;;;37.90;;
44434;SDS011;30138;20.964;105.830;2023-02-15T00:50:54;64.97;;;38.80;;
44434;SDS011;30138;20.964;105.830;2023-02-15T00:56:02;64.35;;;38.13;;
44434;SDS011;30138;20.964;105.830;2023-02-15T01:01:11;68.13;;;39.80;;
44434;SDS011;30138;20.964;105.830;2023-02-15T01:06:20;63.83;;;39.33;;
44434;SDS011;30138;20.964;105.830;2023-02-15T01:11:27;65.10;;;39.58;;
44434;SDS011;30138;20.964;105.830;2023-02-15T01:16:35;64.13;;;38.53;;
44434;SDS011;30138;20.964;105.830;2023-02-15T01:21:41;67.22;;;40.80;;
44434;SDS011;30138;20.964;105.830;2023-02-15T01:26:48;64.85;;;39.22;;
44434;SDS011;30138;20.964;105.830;2023-02-15T01:31:57;64.75;;;38.35;;
44434;SDS011;30138;20.964;105.830;2023-02-15T01:37:05;61.33;;;38.30;;
44434;SDS011;30138;20.964;105.830;2023-02-15T01:42:12;63.92;;;39.10;;
44434;SDS011;30138;20.964;105.830;2023-02-15T01:47:22;66.72;;;40.63;;
44434;SDS011;30138;20.964;105.830;2023-02-15T01:52:35;65.03;;;39.92;;
44434;SDS011;30138;20.964;105.830;2023-02-15T01:57:47;71.13;;;40.70;;
44434;SDS011;30138;20.964;105.830;2023-02-15T02:02:56;68.90;;;40.50;;
44434;SDS011;30138;20.964;105.830;2023-02-15T02:08:03;68.68;;;41.38;;
44434;SDS011;30138;20.964;105.830;2023-02-15T02:13:11;64.18;;;39.90;;
44434;SDS011;30138;20.964;105.830;2023-02-15T02:18:23;64.63;;;40.65;;
44434;SDS011;30138;20.964;105.830;2023-02-15T02:23:46;68.35;;;41.30;;
44434;SDS011;30138;20.964;105.830;2023-02-15T02:29:17;71.00;;;41.03;;
44434;SDS011;30138;20.964;105.830;2023-02-15T02:35:25;66.85;;;40.70;;
44434;SDS011;30138;20.964;105.830;2023-02-15T02:40:43;67.82;;;41.28;;
44434;SDS011;30138;20.964;105.830;2023-02-15T02:46:05;68.38;;;42.08;;
44434;SDS011;30138;20.964;105.830;2023-02-15T02:51:19;66.40;;;41.55;;
44434;SDS011;30138;20.964;105.830;2023-02-15T02:56:26;66.95;;;40.90;;
44434;SDS011;30138;20.964;105.830;2023-02-15T03:01:36;73.13;;;41.35;;
44434;SDS011;30138;20.964;105.830;2023-02-15T03:06:49;67.80;;;41.77;;
44434;SDS011;30138;20.964;105.830;2023-02-15T03:11:59;71.07;;;40.67;;
44434;SDS011;30138;20.964;105.830;2023-02-15T03:17:11;70.38;;;41.60;;
44434;SDS011;30138;20.964;105.830;2023-02-15T03:22:21;67.82;;;41.85;;
44434;SDS011;30138;20.964;105.830;2023-02-15T03:27:33;68.35;;;40.17;;
44434;SDS011;30138;20.964;105.830;2023-02-15T03:32:47;63.05;;;41.50;;
44434;SDS011;30138;20.964;105.830;2023-02-15T03:37:58;70.63;;;40.47;;
44434;SDS011;30138;20.964;105.830;2023-02-15T03:43:21;60.45;;;37.67;;
44434;SDS011;30138;20.964;105.830;2023-02-15T03:48:35;70.75;;;40.38;;
44434;SDS011;30138;20.964;105.830;2023-02-15T03:53:47;60.63;;;38.80;;
44434;SDS011;30138;20.964;105.830;2023-02-15T03:58:55;65.40;;;39.72;;
44434;SDS011;30138;20.964;105.830;2023-02-15T04:04:19;62.63;;;38.72;;
44434;SDS011;30138;20.964;105.830;2023-02-15T04:09:29;63.67;;;39.05;;
44434;SDS011;30138;20.964;105.830;2023-02-15T04:14:52;64.60;;;40.42;;
44434;SDS011;30138;20.964;105.830;2023-02-15T04:20:15;66.93;;;40.67;;
44434;SDS011;30138;20.964;105.830;2023-02-15T04:25:40;72.50;;;40.53;;
44434;SDS011;30138;20.964;105.830;2023-02-15T04:30:47;69.97;;;39.88;;
44434;SDS011;30138;20.964;105.830;2023-02-15T04:35:54;67.22;;;39.95;;
44434;SDS011;30138;20.964;105.830;2023-02-15T04:41:03;66.75;;;40.33;;
44434;SDS011;30138;20.964;105.830;2023-02-15T04:46:12;64.35;;;40.80;;
44434;SDS011;30138;20.964;105.830;2023-02-15T04:51:19;63.70;;;40.25;;
44434;SDS011;30138;20.964;105.830;2023-02-15T04:56:27;72.80;;;40.97;;
44434;SDS011;30138;20.964;105.830;2023-02-15T05:01:35;64.18;;;39.97;;
44434;SDS011;30138;20.964;105.830;2023-02-15T05:06:43;70.60;;;41.42;;
44434;SDS011;30138;20.964;105.830;2023-02-15T05:11:51;67.50;;;40.78;;
44434;SDS011;30138;20.964;105.830;2023-02-15T05:16:58;63.05;;;40.88;;
44434;SDS011;30138;20.964;105.830;2023-02-15T05:22:07;67.03;;;40.50;;
44434;SDS011;30138;20.964;105.830;2023-02-15T05:27:15;67.20;;;39.85;;
44434;SDS011;30138;20.964;105.830;2023-02-15T05:32:38;70.25;;;39.75;;
44434;SDS011;30138;20.964;105.830;2023-02-15T05:37:45;61.97;;;39.30;;
44434;SDS011;30138;20.964;105.830;2023-02-15T05:42:54;66.22;;;40.05;;
44434;SDS011;30138;20.964;105.830;2023-02-15T05:48:04;61.65;;;38.55;;
44434;SDS011;30138;20.964;105.830;2023-02-15T05:53:11;62.47;;;39.72;;
44434;SDS011;30138;20.964;105.830;2023-02-15T05:58:20;66.85;;;40.35;;
44434;SDS011;30138;20.964;105.830;2023-02-15T06:03:27;65.60;;;39.75;;
44434;SDS011;30138;20.964;105.830;2023-02-15T06:08:34;64.38;;;39.95;;
44434;SDS011;30138;20.964;105.830;2023-02-15T06:13:43;64.60;;;39.33;;
44434;SDS011;30138;20.964;105.830;2023-02-15T06:18:50;68.95;;;40.85;;
44434;SDS011;30138;20.964;105.830;2023-02-15T06:23:57;63.53;;;40.60;;
44434;SDS011;30138;20.964;105.830;2023-02-15T06:29:06;67.82;;;40.90;;
44434;SDS011;30138;20.964;105.830;2023-02-15T06:34:14;67.45;;;41.30;;
44434;SDS011;30138;20.964;105.830;2023-02-15T06:39:25;64.75;;;40.00;;
44434;SDS011;30138;20.964;105.830;2023-02-15T06:49:42;65.28;;;40.28;;
44434;SDS011;30138;20.964;105.830;2023-02-15T06:54:48;67.25;;;40.75;;
44434;SDS011;30138;20.964;105.830;2023-02-15T06:59:58;73.18;;;40.90;;
44434;SDS011;30138;20.964;105.830;2023-02-15T07:05:06;67.28;;;41.13;;
44434;SDS011;30138;20.964;105.830;2023-02-15T07:10:13;69.47;;;42.35;;
44434;SDS011;30138;20.964;105.830;2023-02-15T07:15:21;70.78;;;42.65;;
44434;SDS011;30138;20.964;105.830;2023-02-15T07:20:28;71.18;;;42.80;;
44434;SDS011;30138;20.964;105.830;2023-02-15T07:25:35;75.10;;;44.38;;
44434;SDS011;30138;20.964;105.830;2023-02-15T07:30:43;73.95;;;43.72;;
44434;SDS011;30138;20.964;105.830;2023-02-15T07:35:51;75.72;;;44.50;;
44434;SDS011;30138;20.964;105.830;2023-02-15T07:40:59;68.70;;;44.28;;
44434;SDS011;30138;20.964;105.830;2023-02-15T07:46:09;74.40;;;43.83;;
44434;SDS011;30138;20.964;105.830;2023-02-15T07:51:21;81.78;;;46.63;;
44434;SDS011;30138;20.964;105.830;2023-02-15T07:56:29;77.50;;;44.97;;
44434;SDS011;30138;20.964;105.830;2023-02-15T08:01:38;83.18;;;46.05;;
44434;SDS011;30138;20.964;105.830;2023-02-15T08:06:45;79.22;;;46.60;;
44434;SDS011;30138;20.964;105.830;2023-02-15T08:11:52;76.50;;;46.58;;
44434;SDS011;30138;20.964;105.830;2023-02-15T08:17:01;85.00;;;47.22;;
44434;SDS011;30138;20.964;105.830;2023-02-15T08:22:10;78.97;;;47.63;;
44434;SDS011;30138;20.964;105.830;2023-02-15T08:27:19;87.55;;;48.83;;
44434;SDS011;30138;20.964;105.830;2023-02-15T08:32:30;84.70;;;48.95;;
44434;SDS011;30138;20.964;105.830;2023-02-15T08:37:37;83.88;;;49.40;;
44434;SDS011;30138;20.964;105.830;2023-02-15T08:42:43;80.07;;;47.70;;
44434;SDS011;30138;20.964;105.830;2023-02-15T08:47:53;81.22;;;47.13;;
44434;SDS011;30138;20.964;105.830;2023-02-15T08:53:02;80.63;;;48.10;;
44434;SDS011;30138;20.964;105.830;2023-02-15T08:58:10;80.28;;;48.25;;
44434;SDS011;30138;20.964;105.830;2023-02-15T09:03:18;76.75;;;47.65;;
44434;SDS011;30138;20.964;105.830;2023-02-15T09:08:25;77.50;;;47.42;;
44434;SDS011;30138;20.964;105.830;2023-02-15T09:13:32;80.60;;;48.75;;
44434;SDS011;30138;20.964;105.830;2023-02-15T09:18:40;85.25;;;48.53;;
44434;SDS011;30138;20.964;105.830;2023-02-15T09:23:48;88.70;;;48.20;;
44434;SDS011;30138;20.964;105.830;2023-02-15T09:28:59;83.60;;;48.95;;
44434;SDS011;30138;20.964;105.830;2023-02-15T09:34:08;80.70;;;48.05;;
44434;SDS011;30138;20.964;105.830;2023-02-15T09:39:15;87.32;;;50.67;;
44434;SDS011;30138;20.964;105.830;2023-02-15T09:44:27;82.63;;;49.40;;
44434;SDS011;30138;20.964;105.830;2023-02-15T09:49:55;84.28;;;49.28;;
44434;SDS011;30138;20.964;105.830;2023-02-15T09:55:20;87.13;;;50.17;;
44434;SDS011;30138;20.964;105.830;2023-02-15T10:00:41;85.15;;;50.28;;
44434;SDS011;30138;20.964;105.830;2023-02-15T10:06:02;84.43;;;50.03;;
44434;SDS011;30138;20.964;105.830;2023-02-15T10:11:33;89.10;;;49.78;;
44434;SDS011;30138;20.964;105.830;2023-02-15T10:16:56;86.88;;;48.47;;
44434;SDS011;30138;20.964;105.830;2023-02-15T10:22:18;100.03;;;49.85;;
44434;SDS011;30138;20.964;105.830;2023-02-15T10:27:42;88.65;;;51.58;;
44434;SDS011;30138;20.964;105.830;2023-02-15T10:32:56;94.68;;;53.40;;
44434;SDS011;30138;20.964;105.830;2023-02-15T10:38:12;101.53;;;54.50;;
44434;SDS011;30138;20.964;105.830;2023-02-15T10:43:39;91.78;;;53.10;;
44434;SDS011;30138;20.964;105.830;2023-02-15T10:49:03;90.55;;;50.55;;
44434;SDS011;30138;20.964;105.830;2023-02-15T10:54:33;87.40;;;51.45;;
44434;SDS011;30138;20.964;105.830;2023-02-15T11:05:25;87.97;;;50.03;;
44434;SDS011;30138;20.964;105.830;2023-02-15T11:10:44;89.88;;;50.42;;
44434;SDS011;30138;20.964;105.830;2023-02-15T11:15:55;85.95;;;50.45;;
44434;SDS011;30138;20.964;105.830;2023-02-15T11:21:06;87.60;;;51.20;;
44434;SDS011;30138;20.964;105.830;2023-02-15T11:26:21;88.95;;;51.85;;
44434;SDS011;30138;20.964;105.830;2023-02-15T11:31:36;95.90;;;54.25;;
44434;SDS011;30138;20.964;105.830;2023-02-15T11:36:58;98.63;;;54.33;;
44434;SDS011;30138;20.964;105.830;2023-02-15T11:42:12;94.55;;;52.55;;
44434;SDS011;30138;20.964;105.830;2023-02-15T11:47:23;91.35;;;53.33;;
44434;SDS011;30138;20.964;105.830;2023-02-15T11:52:31;92.75;;;52.42;;
44434;SDS011;30138;20.964;105.830;2023-02-15T11:57:41;91.13;;;53.80;;
44434;SDS011;30138;20.964;105.830;2023-02-15T12:02:54;96.63;;;53.45;;
44434;SDS011;30138;20.964;105.830;2023-02-15T12:08:03;97.10;;;53.45;;
44434;SDS011;30138;20.964;105.830;2023-02-15T12:13:25;94.47;;;54.57;;
44434;SDS011;30138;20.964;105.830;2023-02-15T12:18:34;89.90;;;54.05;;
44434;SDS011;30138;20.964;105.830;2023-02-15T12:23:46;97.25;;;53.83;;
44434;SDS011;30138;20.964;105.830;2023-02-15T12:28:58;93.10;;;54.23;;
44434;SDS011;30138;20.964;105.830;2023-02-15T12:34:11;94.55;;;53.65;;
44434;SDS011;30138;20.964;105.830;2023-02-15T12:39:27;95.53;;;54.10;;
44434;SDS011;30138;20.964;105.830;2023-02-15T12:44:39;90.30;;;53.10;;
44434;SDS011;30138;20.964;105.830;2023-02-15T12:50:05;94.18;;;53.20;;
44434;SDS011;30138;20.964;105.830;2023-02-15T12:55:27;94.90;;;54.63;;
44434;SDS011;30138;20.964;105.830;2023-02-15T13:00:37;94.07;;;53.88;;
44434;SDS011;30138;20.964;105.830;2023-02-15T13:05:44;101.13;;;55.40;;
44434;SDS011;30138;20.964;105.830;2023-02-15T13:10:53;98.47;;;55.80;;
44434;SDS011;30138;20.964;105.830;2023-02-15T13:16:04;93.45;;;54.28;;
44434;SDS011;30138;20.964;105.830;2023-02-15T13:21:16;92.72;;;55.50;;
44434;SDS011;30138;20.964;105.830;2023-02-15T13:26:30;97.32;;;56.50;;
44434;SDS011;30138;20.964;105.830;2023-02-15T13:31:41;95.43;;;54.65;;
44434;SDS011;30138;20.964;105.830;2023-02-15T13:36:49;92.00;;;54.65;;
44434;SDS011;30138;20.964;105.830;2023-02-15T13:42:13;94.30;;;55.17;;
44434;SDS011;30138;20.964;105.830;2023-02-15T13:47:27;86.25;;;50.45;;
44434;SDS011;30138;20.964;105.830;2023-02-15T13:52:44;92.55;;;52.97;;
44434;SDS011;30138;20.964;105.830;2023-02-15T13:58:02;83.70;;;50.45;;
44434;SDS011;30138;20.964;105.830;2023-02-15T14:09:17;91.32;;;52.38;;
44434;SDS011;30138;20.964;105.830;2023-02-15T14:14:45;89.07;;;51.83;;
44434;SDS011;30138;20.964;105.830;2023-02-15T14:20:14;93.10;;;50.78;;
44434;SDS011;30138;20.964;105.830;2023-02-15T14:25:27;83.32;;;50.15;;
44434;SDS011;30138;20.964;105.830;2023-02-15T14:30:39;86.10;;;50.35;;
44434;SDS011;30138;20.964;105.830;2023-02-15T14:35:51;83.35;;;49.30;;
44434;SDS011;30138;20.964;105.830;2023-02-15T14:40:59;86.60;;;49.85;;
44434;SDS011;30138;20.964;105.830;2023-02-15T14:46:12;98.40;;;50.88;;
44434;SDS011;30138;20.964;105.830;2023-02-15T15:02:41;97.28;;;49.47;;
44434;SDS011;30138;20.964;105.830;2023-02-15T15:07:58;81.47;;;48.00;;
44434;SDS011;30138;20.964;105.830;2023-02-15T15:18:58;86.32;;;48.95;;
44434;SDS011;30138;20.964;105.830;2023-02-15T15:24:09;83.68;;;48.90;;
44434;SDS011;30138;20.964;105.830;2023-02-15T15:29:53;79.55;;;47.92;;
44434;SDS011;30138;20.964;105.830;2023-02-15T15:35:06;79.25;;;48.85;;
44434;SDS011;30138;20.964;105.830;2023-02-15T15:40:44;84.88;;;48.67;;
44434;SDS011;30138;20.964;105.830;2023-02-15T15:46:23;87.80;;;48.47;;
44434;SDS011;30138;20.964;105.830;2023-02-15T15:51:54;89.43;;;49.58;;
44434;SDS011;30138;20.964;105.830;2023-02-15T15:57:14;85.50;;;48.20;;
44434;SDS011;30138;20.964;105.830;2023-02-15T16:02:35;91.70;;;49.55;;
44434;SDS011;30138;20.964;105.830;2023-02-15T16:07:58;86.53;;;49.85;;
44434;SDS011;30138;20.964;105.830;2023-02-15T16:13:11;86.00;;;48.67;;
44434;SDS011;30138;20.964;105.830;2023-02-15T16:18:22;87.20;;;48.92;;
44434;SDS011;30138;20.964;105.830;2023-02-15T16:23:49;84.15;;;50.10;;
44434;SDS011;30138;20.964;105.830;2023-02-15T16:29:25;87.22;;;49.17;;
44434;SDS011;30138;20.964;105.830;2023-02-15T16:34:33;89.10;;;49.47;;
44434;SDS011;30138;20.964;105.830;2023-02-15T16:39:41;85.38;;;50.13;;
44434;SDS011;30138;20.964;105.830;2023-02-15T16:44:55;85.40;;;50.88;;
44434;SDS011;30138;20.964;105.830;2023-02-15T16:50:16;88.93;;;49.67;;
44434;SDS011;30138;20.964;105.830;2023-02-15T16:55:30;86.00;;;49.97;;
44434;SDS011;30138;20.964;105.830;2023-02-15T17:00:45;84.60;;;50.83;;
44434;SDS011;30138;20.964;105.830;2023-02-15T17:05:52;84.47;;;50.03;;
44434;SDS011;30138;20.964;105.830;2023-02-15T17:11:15;82.43;;;49.28;;
44434;SDS011;30138;20.964;105.830;2023-02-15T17:16:28;82.40;;;51.10;;
44434;SDS011;30138;20.964;105.830;2023-02-15T17:21:37;85.18;;;52.50;;
44434;SDS011;30138;20.964;105.830;2023-02-15T17:26:51;88.20;;;50.58;;
44434;SDS011;30138;20.964;105.830;2023-02-15T17:32:04;84.55;;;49.97;;
44434;SDS011;30138;20.964;105.830;2023-02-15T17:37:26;92.35;;;50.88;;
44434;SDS011;30138;20.964;105.830;2023-02-15T17:42:36;86.38;;;51.40;;
44434;SDS011;30138;20.964;105.830;2023-02-15T17:47:45;82.18;;;50.60;;
44434;SDS011;30138;20.964;105.830;2023-02-15T17:52:53;87.15;;;51.92;;
44434;SDS011;30138;20.964;105.830;2023-02-15T17:58:04;90.38;;;53.22;;
44434;SDS011;30138;20.964;105.830;2023-02-15T18:03:15;90.13;;;52.97;;
44434;SDS011;30138;20.964;105.830;2023-02-15T18:08:38;88.55;;;51.33;;
44434;SDS011;30138;20.964;105.830;2023-02-15T18:14:00;87.28;;;50.83;;
44434;SDS011;30138;20.964;105.830;2023-02-15T18:19:11;88.88;;;52.13;;
44434;SDS011;30138;20.964;105.830;2023-02-15T18:24:22;81.82;;;50.13;;
44434;SDS011;30138;20.964;105.830;2023-02-15T18:29:29;88.95;;;49.55;;
44434;SDS011;30138;20.964;105.830;2023-02-15T18:34:38;82.95;;;50.65;;
44434;SDS011;30138;20.964;105.830;2023-02-15T18:39:46;80.60;;;49.15;;
44434;SDS011;30138;20.964;105.830;2023-02-15T18:44:55;84.97;;;51.45;;
44434;SDS011;30138;20.964;105.830;2023-02-15T18:50:06;82.00;;;50.35;;
44434;SDS011;30138;20.964;105.830;2023-02-15T18:55:15;84.20;;;50.58;;
44434;SDS011;30138;20.964;105.830;2023-02-15T19:00:25;84.95;;;51.85;;
44434;SDS011;30138;20.964;105.830;2023-02-15T19:05:35;85.28;;;50.78;;
44434;SDS011;30138;20.964;105.830;2023-02-15T19:10:43;85.03;;;51.25;;
44434;SDS011;30138;20.964;105.830;2023-02-15T19:15:50;85.00;;;53.38;;
44434;SDS011;30138;20.964;105.830;2023-02-15T19:20:58;93.22;;;57.63;;
44434;SDS011;30138;20.964;105.830;2023-02-15T19:26:06;99.63;;;58.90;;
44434;SDS011;30138;20.964;105.830;2023-02-15T19:31:15;100.60;;;61.50;;
44434;SDS011;30138;20.964;105.830;2023-02-15T19:36:23;107.72;;;62.95;;
44434;SDS011;30138;20.964;105.830;2023-02-15T19:41:31;109.88;;;65.95;;
44434;SDS011;30138;20.964;105.830;2023-02-15T19:46:39;117.20;;;69.00;;
44434;SDS011;30138;20.964;105.830;2023-02-15T19:51:48;113.78;;;68.28;;
44434;SDS011;30138;20.964;105.830;2023-02-15T19:56:54;122.07;;;74.25;;
44434;SDS011;30138;20.964;105.830;2023-02-15T20:02:01;126.22;;;75.03;;
44434;SDS011;30138;20.964;105.830;2023-02-15T20:07:13;123.13;;;72.47;;
44434;SDS011;30138;20.964;105.830;2023-02-15T20:12:28;124.88;;;73.40;;
44434;SDS011;30138;20.964;105.830;2023-02-15T20:17:34;126.18;;;75.85;;
44434;SDS011;30138;20.964;105.830;2023-02-15T20:22:43;126.65;;;73.30;;
44434;SDS011;30138;20.964;105.830;2023-02-15T20:27:53;134.57;;;75.53;;
44434;SDS011;30138;20.964;105.830;2023-02-15T20:33:00;125.07;;;74.10;;
44434;SDS011;30138;20.964;105.830;2023-02-15T20:38:11;131.68;;;76.53;;
44434;SDS011;30138;20.964;105.830;2023-02-15T20:43:24;120.13;;;71.80;;
44434;SDS011;30138;20.964;105.830;2023-02-15T20:48:31;125.57;;;71.68;;
44434;SDS011;30138;20.964;105.830;2023-02-15T20:53:40;120.00;;;71.50;;
44434;SDS011;30138;20.964;105.830;2023-02-15T20:58:47;123.20;;;69.70;;
44434;SDS011;30138;20.964;105.830;2023-02-15T21:03:54;121.47;;;67.68;;
44434;SDS011;30138;20.964;105.830;2023-02-15T21:09:02;113.30;;;65.00;;
44434;SDS011;30138;20.964;105.830;2023-02-15T21:14:14;108.70;;;64.85;;
44434;SDS011;30138;20.964;105.830;2023-02-15T21:19:23;113.57;;;65.30;;
44434;SDS011;30138;20.964;105.830;2023-02-15T21:24:32;110.28;;;65.63;;
44434;SDS011;30138;20.964;105.830;2023-02-15T21:29:39;121.97;;;67.47;;
44434;SDS011;30138;20.964;105.830;2023-02-15T21:34:45;112.75;;;67.18;;
44434;SDS011;30138;20.964;105.830;2023-02-15T21:39:54;110.95;;;67.13;;
44434;SDS011;30138;20.964;105.830;2023-02-15T21:45:11;117.47;;;69.43;;
44434;SDS011;30138;20.964;105.830;2023-02-15T21:50:35;127.53;;;70.20;;
44434;SDS011;30138;20.964;105.830;2023-02-15T21:56:02;125.63;;;72.53;;
44434;SDS011;30138;20.964;105.830;2023-02-15T22:01:10;122.25;;;73.65;;
44434;SDS011;30138;20.964;105.830;2023-02-15T22:06:25;129.05;;;75.15;;
44434;SDS011;30138;20.964;105.830;2023-02-15T22:11:34;132.32;;;77.03;;
44434;SDS011;30138;20.964;105.830;2023-02-15T22:16:40;129.55;;;77.70;;
44434;SDS011;30138;20.964;105.830;2023-02-15T22:21:47;131.45;;;78.85;;
44434;SDS011;30138;20.964;105.830;2023-02-15T22:26:56;130.50;;;80.32;;
44434;SDS011;30138;20.964;105.830;2023-02-15T22:32:02;124.57;;;74.75;;
44434;SDS011;30138;20.964;105.830;2023-02-15T22:37:12;135.25;;;78.32;;
44434;SDS011;30138;20.964;105.830;2023-02-15T22:42:22;132.77;;;78.32;;
44434;SDS011;30138;20.964;105.830;2023-02-15T22:52:38;123.07;;;74.72;;
44434;SDS011;30138;20.964;105.830;2023-02-15T22:57:47;129.35;;;77.82;;
44434;SDS011;30138;20.964;105.830;2023-02-15T23:02:57;124.03;;;73.38;;
44434;SDS011;30138;20.964;105.830;2023-02-15T23:08:05;119.60;;;72.75;;
44434;SDS011;30138;20.964;105.830;2023-02-15T23:13:19;121.10;;;71.00;;
44434;SDS011;30138;20.964;105.830;2023-02-15T23:18:29;115.05;;;72.95;;
44434;SDS011;30138;20.964;105.830;2023-02-15T23:23:39;123.40;;;76.18;;
44434;SDS011;30138;20.964;105.830;2023-02-15T23:28:49;122.53;;;73.70;;
44434;SDS011;30138;20.964;105.830;2023-02-15T23:33:57;124.38;;;70.97;;
44434;SDS011;30138;20.964;105.830;2023-02-15T23:39:10;118.07;;;71.75;;
44434;SDS011;30138;20.964;105.830;2023-02-15T23:44:37;125.55;;;71.30;;
44434;SDS011;30138;20.964;105.830;2023-02-15T23:49:45;117.63;;;71.82;;
44434;SDS011;30138;20.964;105.830;2023-02-15T23:54:51;116.07;;;70.70;;
